Time;durP1;ratioP1;P1;durP2;ratioP2;P2;SDS_P1;SDS_P2;PMS_P1;PMS_P2;Temp;Humidity;BMP_temperature;BMP_pressure;BME280_temperature;BME280_humidity;BME280_pressure;Samples;Min_cycle;Max_cycle;Signal;HPM_P1;HPM_P2
2021/09/06 00:00:29;;;;;;;8.27;6.80;;;;;;;19.31;60.25;97733.06;4905742;29;20027;-79
2021/09/06 00:02:54;;;;;;;9.40;7.10;;;;;;;19.27;60.64;97737.38;4933881;29;20039;-79
2021/09/06 00:05:20;;;;;;;7.60;6.82;;;;;;;19.16;61.07;97741.22;4903638;29;20046;-79
2021/09/06 00:07:46;;;;;;;9.90;8.23;;;;;;;19.10;61.18;97743.16;4920244;29;20101;-79
2021/09/06 00:10:30;;;;;;;8.52;7.63;;;;;;;18.95;61.42;97740.72;4920607;29;20035;-79
2021/09/06 00:12:56;;;;;;;10.35;8.00;;;;;;;19.16;60.81;97735.94;4920111;29;20062;-79
2021/09/06 00:15:22;;;;;;;9.30;8.00;;;;;;;19.20;60.86;97743.00;4915528;29;20026;-79
2021/09/06 00:17:47;;;;;;;8.50;7.03;;;;;;;19.21;61.23;97741.94;4885016;29;20507;-79
2021/09/06 00:20:13;;;;;;;8.88;7.28;;;;;;;19.23;61.32;97734.53;4931800;29;20034;-79
2021/09/06 00:22:38;;;;;;;8.80;7.85;;;;;;;19.28;61.44;97745.00;4920113;29;20043;-79
2021/09/06 00:25:04;;;;;;;9.15;7.28;;;;;;;19.31;61.13;97735.72;4936583;29;20395;-79
2021/09/06 00:27:30;;;;;;;9.10;7.75;;;;;;;19.33;61.48;97743.34;4920218;29;20402;-79
2021/09/06 00:29:55;;;;;;;8.27;7.22;;;;;;;19.34;61.00;97739.66;4920982;29;20059;-79
2021/09/06 00:32:20;;;;;;;8.90;7.32;;;;;;;19.35;61.33;97742.00;4936658;29;20031;-78
2021/09/06 00:34:46;;;;;;;8.93;7.22;;;;;;;19.38;61.07;97741.44;4920816;29;20030;-79
2021/09/06 00:37:11;;;;;;;9.73;7.63;;;;;;;19.33;61.17;97732.78;4936277;29;20042;-79
2021/09/06 00:39:36;;;;;;;8.10;7.28;;;;;;;19.35;60.96;97741.22;4936119;29;20031;-79
2021/09/06 00:42:02;;;;;;;9.18;7.57;;;;;;;19.30;61.00;97738.66;4920653;29;20035;-79
2021/09/06 00:44:27;;;;;;;7.72;6.65;;;;;;;19.31;60.68;97740.22;4920831;29;20035;-79
2021/09/06 00:46:55;;;;;;;10.50;7.70;;;;;;;19.30;60.85;97736.81;4904975;29;20027;-79
2021/09/06 00:49:20;;;;;;;10.20;7.57;;;;;;;19.34;60.60;97743.06;4934370;29;20038;-79
2021/09/06 00:51:48;;;;;;;8.52;6.75;;;;;;;19.27;60.54;97743.44;4903831;29;20032;-79
2021/09/06 00:54:14;;;;;;;8.90;7.68;;;;;;;19.35;60.70;97739.38;4885695;29;20028;-79
2021/09/06 00:56:40;;;;;;;10.02;7.75;;;;;;;19.33;60.29;97744.16;4916683;29;20038;-79
2021/09/06 00:59:05;;;;;;;9.50;7.50;;;;;;;19.37;60.32;97737.22;4884855;29;20027;-79
2021/09/06 01:01:30;;;;;;;7.95;6.78;;;;;;;19.39;60.21;97740.34;4886368;29;20146;-79
2021/09/06 01:03:56;;;;;;;8.82;6.90;;;;;;;19.42;60.01;97739.00;4905191;24;20507;-80
2021/09/06 01:06:21;;;;;;;9.60;7.07;;;;;;;19.44;59.90;97742.13;4885629;29;20036;-79
2021/09/06 01:08:47;;;;;;;10.10;7.15;;;;;;;19.42;59.82;97739.78;4901653;29;20028;-80
2021/09/06 01:11:12;;;;;;;9.05;6.90;;;;;;;19.40;60.03;97746.44;4901970;29;20051;-80
2021/09/06 01:13:37;;;;;;;8.38;6.50;;;;;;;19.35;59.96;97746.50;4908565;29;20028;-80
2021/09/06 01:16:03;;;;;;;9.05;6.65;;;;;;;19.27;60.14;97754.00;4920244;29;20039;-80
2021/09/06 01:18:28;;;;;;;7.53;6.43;;;;;;;19.23;60.34;97739.81;4921191;29;20043;-80
2021/09/06 01:20:54;;;;;;;7.53;6.55;;;;;;;19.26;60.15;97749.81;4903600;29;20043;-80
2021/09/06 01:23:19;;;;;;;8.65;7.15;;;;;;;19.25;60.20;97742.94;4904037;29;20047;-80
2021/09/06 01:25:48;;;;;;;8.40;7.32;;;;;;;19.11;60.42;97736.81;4919221;29;20031;-80
2021/09/06 01:28:14;;;;;;;9.52;6.97;;;;;;;19.30;60.53;97757.16;4904781;29;20108;-80
2021/09/06 01:30:40;;;;;;;9.43;7.60;;;;;;;19.25;60.72;97747.44;4919909;29;20055;-80
2021/09/06 01:33:05;;;;;;;9.65;6.82;;;;;;;19.18;60.78;97750.44;4920228;29;20541;-80
2021/09/06 01:35:31;;;;;;;8.35;7.05;;;;;;;19.21;60.52;97755.16;4904910;29;20024;-80
2021/09/06 01:37:56;;;;;;;8.60;6.80;;;;;;;19.22;60.64;97748.00;4904722;29;20034;-81
2021/09/06 01:40:23;;;;;;;10.00;7.30;;;;;;;19.08;60.88;97740.03;4919998;29;20090;-80
2021/09/06 01:42:52;;;;;;;9.23;7.50;;;;;;;19.01;60.92;97744.88;4936000;29;20043;-80
2021/09/06 01:45:18;;;;;;;9.25;7.15;;;;;;;19.04;61.01;97747.72;4920126;29;20040;-80
2021/09/06 01:47:43;;;;;;;8.82;7.07;;;;;;;19.02;61.10;97743.78;4887982;29;20703;-80
2021/09/06 01:50:09;;;;;;;11.30;7.40;;;;;;;18.94;61.11;97749.72;4919575;29;20387;-79
2021/09/06 01:52:35;;;;;;;9.75;7.63;;;;;;;18.90;61.31;97755.56;4920371;29;20051;-79
2021/09/06 01:55:00;;;;;;;8.75;7.78;;;;;;;18.90;61.05;97750.28;4905099;29;20538;-79
2021/09/06 01:57:26;;;;;;;9.40;6.78;;;;;;;18.90;61.04;97755.56;4920690;29;20035;-80
2021/09/06 01:59:51;;;;;;;8.85;7.10;;;;;;;18.89;61.43;97756.63;4920971;29;20036;-79
2021/09/06 02:02:16;;;;;;;10.52;7.28;;;;;;;18.90;61.50;97754.75;4904620;29;20071;-79
2021/09/06 02:04:42;;;;;;;8.00;7.13;;;;;;;18.83;61.52;97749.88;4920283;29;20028;-80
2021/09/06 02:07:07;;;;;;;8.13;7.10;;;;;;;18.79;61.63;97748.03;4904908;29;20034;-79
2021/09/06 02:09:33;;;;;;;9.32;7.57;;;;;;;18.81;61.53;97751.16;4904654;29;20035;-79
2021/09/06 02:11:58;;;;;;;9.32;7.55;;;;;;;18.81;61.78;97762.50;4934298;29;20114;-79
2021/09/06 02:14:23;;;;;;;9.98;7.72;;;;;;;18.64;61.89;97739.22;4902997;29;20028;-79
2021/09/06 02:16:49;;;;;;;7.68;6.63;;;;;;;18.74;61.72;97746.25;4904211;29;20090;-79
2021/09/06 02:19:14;;;;;;;7.93;7.03;;;;;;;18.72;61.78;97753.66;4902556;29;20470;-80
2021/09/06 02:21:40;;;;;;;9.10;7.45;;;;;;;18.70;61.89;97739.97;4918558;29;20078;-80
2021/09/06 02:24:05;;;;;;;9.13;7.32;;;;;;;18.66;62.11;97738.94;4903594;29;20121;-80
2021/09/06 02:26:32;;;;;;;8.80;6.93;;;;;;;18.66;61.92;97745.03;4903476;29;20394;-80
2021/09/06 02:28:57;;;;;;;8.30;7.25;;;;;;;18.68;62.18;97745.53;4902820;29;20046;-80
2021/09/06 02:31:23;;;;;;;8.95;7.38;;;;;;;18.68;62.00;97748.16;4902587;29;20028;-80
2021/09/06 02:33:48;;;;;;;8.90;8.00;;;;;;;18.62;62.20;97743.22;4901949;29;20034;-80
2021/09/06 02:36:14;;;;;;;9.73;8.57;;;;;;;18.63;62.12;97750.09;4901817;29;20039;-79
2021/09/06 02:38:41;;;;;;;9.05;7.45;;;;;;;18.60;62.42;97755.91;4921770;29;20046;-79
2021/09/06 02:41:07;;;;;;;10.68;7.93;;;;;;;18.57;62.18;97751.19;4907804;29;20031;-80
2021/09/06 02:43:32;;;;;;;9.82;7.47;;;;;;;18.57;62.29;97746.69;4907593;29;20467;-80
2021/09/06 02:45:57;;;;;;;10.32;8.13;;;;;;;18.57;62.40;97746.69;4913723;29;20059;-79
2021/09/06 02:48:24;;;;;;;10.77;8.60;;;;;;;18.47;62.72;97747.63;4923741;29;20038;-80
2021/09/06 02:50:49;;;;;;;10.63;7.78;;;;;;;18.43;62.50;97741.31;4888597;29;20042;-79
2021/09/06 02:53:14;;;;;;;9.85;7.78;;;;;;;18.45;62.66;97744.47;4922273;29;20035;-80
2021/09/06 02:55:40;;;;;;;11.38;8.68;;;;;;;18.49;62.60;97753.41;4906379;29;20325;-79
2021/09/06 02:58:05;;;;;;;10.15;7.90;;;;;;;18.44;62.95;97737.63;4921257;29;20389;-79
2021/09/06 03:00:31;;;;;;;8.85;7.68;;;;;;;18.40;62.95;97741.88;4906354;29;20027;-80
2021/09/06 03:02:56;;;;;;;10.35;8.52;;;;;;;18.31;63.29;97738.31;4906075;29;20039;-80
2021/09/06 03:05:21;;;;;;;10.35;8.27;;;;;;;18.31;63.35;97748.84;4907433;29;20126;-79
2021/09/06 03:07:47;;;;;;;10.52;7.78;;;;;;;18.29;63.48;97749.13;4906704;29;20440;-79
2021/09/06 03:10:12;;;;;;;10.38;7.72;;;;;;;18.22;63.43;97758.44;4907144;29;20091;-79
2021/09/06 03:12:38;;;;;;;10.23;8.40;;;;;;;18.05;63.70;97745.69;4922823;29;20439;-79
2021/09/06 03:15:03;;;;;;;9.13;7.82;;;;;;;18.00;63.65;97751.78;4905115;29;20032;-79
2021/09/06 03:17:29;;;;;;;8.15;7.35;;;;;;;17.93;63.50;97746.06;4906800;29;20525;-79
2021/09/06 03:19:55;;;;;;;9.23;7.70;;;;;;;17.91;63.47;97748.97;4938988;29;20043;-79
2021/09/06 03:22:20;;;;;;;9.43;7.65;;;;;;;17.88;63.64;97752.16;4921711;29;20042;-79
2021/09/06 03:24:45;;;;;;;9.07;7.35;;;;;;;17.89;63.59;97758.22;4906552;29;20030;-79
2021/09/06 03:27:11;;;;;;;10.50;7.55;;;;;;;17.82;63.52;97739.28;4905872;29;20095;-80
2021/09/06 03:29:36;;;;;;;9.35;7.43;;;;;;;17.89;63.46;97750.31;4921416;29;20035;-79
2021/09/06 03:32:02;;;;;;;9.10;7.38;;;;;;;17.81;63.42;97741.13;4937702;29;20042;-79
2021/09/06 03:34:27;;;;;;;10.27;8.10;;;;;;;17.84;63.26;97743.22;4906974;29;20027;-80
2021/09/06 03:36:53;;;;;;;8.63;6.90;;;;;;;17.86;63.28;97746.41;4921158;29;20031;-80
2021/09/06 03:39:19;;;;;;;9.15;7.35;;;;;;;17.79;63.48;97736.16;4937111;29;20071;-79
2021/09/06 03:41:45;;;;;;;8.68;7.55;;;;;;;17.80;64.00;97739.56;4937397;29;20483;-80
2021/09/06 03:44:10;;;;;;;10.32;7.78;;;;;;;17.75;63.90;97737.78;4906771;29;20024;-80
2021/09/06 03:46:35;;;;;;;9.07;7.05;;;;;;;17.73;63.95;97733.84;4938310;29;20066;-79
2021/09/06 03:49:00;;;;;;;11.43;7.68;;;;;;;17.78;64.00;97737.19;4921733;29;20066;-80
2021/09/06 03:51:26;;;;;;;9.13;7.20;;;;;;;17.79;63.87;97735.38;4922606;29;20452;-79
2021/09/06 03:53:51;;;;;;;9.13;8.20;;;;;;;17.83;63.87;97733.75;4922061;29;20602;-79
2021/09/06 03:56:19;;;;;;;8.80;7.88;;;;;;;17.90;64.11;97741.34;4937956;29;20058;-80
2021/09/06 03:58:44;;;;;;;10.30;8.60;;;;;;;17.82;64.07;97726.91;4937567;29;20490;-79
2021/09/06 04:01:10;;;;;;;10.57;8.38;;;;;;;17.94;63.90;97739.72;4905865;29;20039;-79
2021/09/06 04:03:36;;;;;;;10.93;8.80;;;;;;;17.96;64.23;97742.88;4921242;29;20035;-79
2021/09/06 04:06:04;;;;;;;10.63;8.32;;;;;;;17.83;64.04;97725.06;4905180;29;20066;-79
2021/09/06 04:08:30;;;;;;;10.55;8.13;;;;;;;17.89;64.34;97740.56;4936968;29;20039;-79
2021/09/06 04:10:59;;;;;;;10.65;8.32;;;;;;;17.74;64.60;97738.81;4936839;29;20044;-79
2021/09/06 04:13:26;;;;;;;10.85;8.50;;;;;;;17.73;64.49;97739.88;4905384;29;20102;-79
2021/09/06 04:15:52;;;;;;;11.48;9.02;;;;;;;17.70;64.69;97748.34;4921061;29;20226;-80
2021/09/06 04:18:17;;;;;;;11.30;8.60;;;;;;;17.71;64.44;97747.28;4920582;29;20036;-79
2021/09/06 04:20:43;;;;;;;11.48;8.60;;;;;;;17.65;64.71;97745.75;4920774;29;20468;-80
2021/09/06 04:23:08;;;;;;;12.02;8.40;;;;;;;17.59;64.65;97736.31;4905161;29;20259;-79
2021/09/06 04:25:34;;;;;;;10.65;8.50;;;;;;;17.66;64.59;97754.44;4921243;29;20016;-79
2021/09/06 04:27:59;;;;;;;9.45;7.80;;;;;;;17.60;64.65;97749.22;4889240;29;20078;-79
2021/09/06 04:30:25;;;;;;;10.40;8.60;;;;;;;17.56;65.06;97744.75;4905011;29;20035;-79
2021/09/06 04:32:50;;;;;;;11.48;8.45;;;;;;;17.52;64.98;97749.03;4936574;29;20035;-80
2021/09/06 04:35:16;;;;;;;10.93;8.20;;;;;;;17.51;65.29;97763.22;4920839;29;20031;-79
2021/09/06 04:37:41;;;;;;;8.32;7.40;;;;;;;17.51;64.91;97766.66;4905758;29;20059;-80
2021/09/06 04:40:08;;;;;;;9.82;8.23;;;;;;;17.39;65.43;97761.75;4936760;29;20095;-79
2021/09/06 04:42:33;;;;;;;15.45;8.40;;;;;;;17.45;65.20;97773.03;4921150;29;20024;-79
2021/09/06 04:44:59;;;;;;;11.32;8.15;;;;;;;17.35;65.46;97765.97;4937182;29;20546;-79
2021/09/06 04:47:24;;;;;;;9.57;8.55;;;;;;;17.33;65.64;97773.34;4921290;29;20067;-79
2021/09/06 04:49:49;;;;;;;12.05;8.52;;;;;;;17.31;65.56;97769.44;4936459;29;20063;-79
2021/09/06 04:52:15;;;;;;;10.85;8.27;;;;;;;17.28;65.61;97765.50;4931612;29;20060;-79
2021/09/06 04:54:40;;;;;;;11.15;8.88;;;;;;;17.19;65.49;97764.50;4901712;29;20083;-80
2021/09/06 04:57:05;;;;;;;10.88;8.43;;;;;;;17.20;65.57;97780.03;4901774;29;20036;-79
2021/09/06 04:59:31;;;;;;;12.95;8.70;;;;;;;17.13;65.54;97770.84;4916407;29;20032;-80
2021/09/06 05:01:56;;;;;;;9.80;8.27;;;;;;;17.20;65.52;97779.22;4881969;29;20079;-80
2021/09/06 05:04:22;;;;;;;11.25;7.53;;;;;;;17.24;65.46;97796.06;4897716;29;20036;-80
2021/09/06 05:06:47;;;;;;;12.32;8.27;;;;;;;17.20;65.38;97789.75;4898140;29;20036;-80
2021/09/06 05:09:12;;;;;;;11.25;8.25;;;;;;;17.09;65.79;97778.50;4897629;29;20083;-80
2021/09/06 05:11:38;;;;;;;12.13;8.77;;;;;;;17.17;65.85;97792.91;4913985;29;20494;-80
2021/09/06 05:14:03;;;;;;;12.30;8.73;;;;;;;17.28;65.90;97797.06;4913182;29;20470;-80
2021/09/06 05:16:28;;;;;;;11.23;8.98;;;;;;;17.37;65.69;97795.44;4916377;29;20038;-80
2021/09/06 05:18:54;;;;;;;11.25;8.88;;;;;;;17.36;65.71;97783.34;4931493;29;20273;-79
2021/09/06 05:21:19;;;;;;;12.40;9.10;;;;;;;17.47;65.65;97793.81;4900281;29;20582;-79
2021/09/06 05:23:52;;;;;;;10.73;8.43;;;;;;;17.45;65.52;97794.09;4916418;29;20387;-80
2021/09/06 05:26:17;;;;;;;9.70;7.50;;;;;;;17.54;65.42;97794.28;4915570;29;20058;-79
2021/09/06 05:28:43;;;;;;;13.23;8.90;;;;;;;17.59;65.72;97802.94;4915622;29;20066;-79
2021/09/06 05:31:10;;;;;;;11.23;9.48;;;;;;;17.68;65.56;97808.38;4910021;29;20494;-80
2021/09/06 05:33:38;;;;;;;12.45;8.63;;;;;;;17.77;65.15;97813.88;4914933;29;20390;-80
2021/09/06 05:36:05;;;;;;;14.15;9.27;;;;;;;17.77;65.60;97817.28;4913555;29;20028;-79
2021/09/06 05:38:30;;;;;;;11.15;8.70;;;;;;;17.78;65.41;97805.69;4882284;29;20032;-79
2021/09/06 05:40:56;;;;;;;10.77;9.10;;;;;;;17.81;64.97;97807.00;4897927;29;20373;-80
2021/09/06 05:43:21;;;;;;;11.73;8.85;;;;;;;17.93;65.36;97817.22;4897710;29;20383;-79
2021/09/06 05:45:47;;;;;;;11.52;9.07;;;;;;;18.04;65.08;97817.91;4882520;29;20553;-80
2021/09/06 05:48:12;;;;;;;11.52;8.85;;;;;;;18.10;64.83;97825.50;4897950;29;20667;-80
2021/09/06 05:50:37;;;;;;;11.48;8.50;;;;;;;18.10;64.83;97820.22;4898125;29;20036;-80
2021/09/06 05:53:03;;;;;;;10.77;8.07;;;;;;;18.20;64.70;97823.81;4897535;29;20036;-80
2021/09/06 05:55:28;;;;;;;12.05;9.05;;;;;;;18.16;64.82;97818.31;4882551;29;20122;-80
2021/09/06 05:57:54;;;;;;;12.48;8.90;;;;;;;18.16;64.69;97818.31;4897654;29;20439;-80
2021/09/06 06:00:19;;;;;;;14.23;9.35;;;;;;;18.20;64.53;97824.63;4914435;29;20048;-80
2021/09/06 06:02:45;;;;;;;10.88;8.48;;;;;;;18.26;64.15;97818.22;4897957;29;20115;-80
2021/09/06 06:05:12;;;;;;;12.70;9.25;;;;;;;18.34;64.35;97827.38;4882352;29;20048;-80
2021/09/06 06:07:37;;;;;;;12.40;8.68;;;;;;;18.45;64.07;97828.06;4913478;29;20068;-80
2021/09/06 06:10:04;;;;;;;10.65;8.98;;;;;;;18.58;64.01;97831.91;4913291;29;20040;-79
2021/09/06 06:12:30;;;;;;;10.50;9.13;;;;;;;18.63;63.63;97829.22;4912600;29;20092;-79
2021/09/06 06:14:56;;;;;;;11.45;8.48;;;;;;;18.68;63.77;97826.53;4912787;29;20039;-79
2021/09/06 06:17:23;;;;;;;10.52;8.70;;;;;;;18.73;63.21;97826.47;4881155;29;20032;-79
2021/09/06 06:19:51;;;;;;;11.85;9.13;;;;;;;18.89;63.22;97838.44;4913166;29;20114;-79
2021/09/06 06:22:17;;;;;;;10.05;8.35;;;;;;;18.98;63.39;97835.16;4912767;29;20096;-79
2021/09/06 06:24:43;;;;;;;10.25;8.70;;;;;;;19.10;63.02;97832.91;4896903;29;20025;-79
2021/09/06 06:27:08;;;;;;;10.32;8.50;;;;;;;19.22;62.87;97837.78;4898136;29;20123;-79
2021/09/06 06:29:34;;;;;;;10.07;8.95;;;;;;;19.25;62.92;97832.69;4899263;29;20420;-79
2021/09/06 06:32:00;;;;;;;11.60;8.27;;;;;;;19.34;62.81;97840.78;4898315;29;20035;-79
2021/09/06 06:34:26;;;;;;;9.50;8.20;;;;;;;19.35;62.85;97836.28;4898776;29;20074;-79
2021/09/06 06:36:52;;;;;;;13.30;9.45;;;;;;;19.42;62.72;97844.63;4901591;29;20080;-79
2021/09/06 06:39:18;;;;;;;9.43;7.82;;;;;;;19.50;62.30;97853.75;4913895;29;20039;-79
2021/09/06 06:41:46;;;;;;;9.95;8.40;;;;;;;19.59;62.10;97846.78;4899911;29;20019;-79
2021/09/06 06:44:12;;;;;;;9.43;8.20;;;;;;;19.64;62.38;97852.78;4931051;29;20440;-78
2021/09/06 06:46:37;;;;;;;11.10;9.07;;;;;;;19.57;61.94;97847.06;4898597;29;20036;-79
2021/09/06 06:49:03;;;;;;;11.80;8.05;;;;;;;19.69;61.76;97853.75;4908137;29;20094;-79
2021/09/06 06:51:28;;;;;;;10.93;8.40;;;;;;;19.70;61.22;97852.69;4902877;29;20510;-79
2021/09/06 06:53:54;;;;;;;9.57;7.90;;;;;;;19.80;61.00;97839.38;4911062;29;20028;-79
2021/09/06 06:56:20;;;;;;;9.93;8.15;;;;;;;19.88;61.11;97851.13;4880850;29;20154;-79
2021/09/06 06:58:45;;;;;;;9.30;7.97;;;;;;;19.96;60.77;97846.00;4896306;29;20032;-80
2021/09/06 07:01:10;;;;;;;12.20;8.63;;;;;;;20.06;60.88;97850.31;4895623;29;20036;-79
2021/09/06 07:03:36;;;;;;;8.88;7.97;;;;;;;20.17;60.70;97848.31;4896075;29;20044;-79
2021/09/06 07:06:01;;;;;;;9.60;8.35;;;;;;;20.33;60.66;97862.81;4896442;29;20036;-79
2021/09/06 07:08:27;;;;;;;11.10;8.45;;;;;;;20.40;60.46;97860.56;4881500;29;20036;-79
2021/09/06 07:10:52;;;;;;;9.35;8.32;;;;;;;20.53;59.85;97843.16;4881115;29;20032;-79
2021/09/06 07:13:17;;;;;;;9.57;7.68;;;;;;;20.80;59.38;97868.09;4880332;29;20055;-79
2021/09/06 07:15:43;;;;;;;9.68;8.07;;;;;;;20.92;59.15;97865.75;4887739;29;20031;-80
2021/09/06 07:18:09;;;;;;;10.55;8.88;;;;;;;21.12;58.54;97861.13;4914744;29;20031;-79
2021/09/06 07:20:35;;;;;;;9.23;7.70;;;;;;;21.31;58.26;97863.66;4899620;29;20027;-79
2021/09/06 07:23:01;;;;;;;8.50;7.63;;;;;;;21.39;58.01;97857.66;4914704;29;20104;-79
2021/09/06 07:25:27;;;;;;;10.20;7.78;;;;;;;21.54;57.48;97874.31;4902940;29;20055;-79
2021/09/06 07:27:52;;;;;;;8.25;7.07;;;;;;;21.88;56.60;97869.31;4918287;29;20454;-79
2021/09/06 07:30:18;;;;;;;8.85;7.15;;;;;;;22.19;55.92;97871.22;4918587;29;20031;-79
2021/09/06 07:32:44;;;;;;;9.00;7.63;;;;;;;22.44;55.17;97869.03;4902725;29;20486;-79
2021/09/06 07:35:11;;;;;;;8.80;7.90;;;;;;;22.54;54.79;97871.44;4918655;29;20704;-79
2021/09/06 07:37:36;;;;;;;9.07;7.28;;;;;;;22.72;54.12;97868.84;4918385;29;20031;-79
2021/09/06 07:40:02;;;;;;;8.27;6.93;;;;;;;22.96;53.40;97887.03;4918323;29;20123;-79
2021/09/06 07:42:28;;;;;;;7.90;7.10;;;;;;;22.91;53.50;97879.22;4902104;29;20067;-79
2021/09/06 07:44:54;;;;;;;8.43;6.82;;;;;;;23.26;52.93;97892.63;4902880;29;20119;-79
2021/09/06 07:47:20;;;;;;;7.75;7.00;;;;;;;23.27;52.43;97887.00;4933776;29;20131;-79
2021/09/06 07:49:46;;;;;;;9.32;6.80;;;;;;;23.40;52.78;97892.50;4917846;29;20031;-79
2021/09/06 07:52:13;;;;;;;8.15;7.13;;;;;;;23.54;52.06;97887.81;4900283;29;20040;-79
2021/09/06 07:54:38;;;;;;;7.70;7.00;;;;;;;23.69;51.52;97887.34;4931318;29;20040;-79
2021/09/06 07:57:03;;;;;;;7.53;6.45;;;;;;;24.01;50.96;97898.66;4933864;29;20036;-79
2021/09/06 07:59:29;;;;;;;8.23;6.65;;;;;;;24.22;50.77;97905.97;4890171;29;20427;-78
2021/09/06 08:01:55;;;;;;;7.70;6.97;;;;;;;24.26;50.56;97907.66;4874943;29;20134;-79
2021/09/06 08:04:21;;;;;;;8.90;6.90;;;;;;;24.22;50.29;97908.63;4902638;29;20499;-79
2021/09/06 08:06:46;;;;;;;6.85;6.10;;;;;;;24.55;49.80;97906.22;4910519;29;20040;-79
2021/09/06 08:09:12;;;;;;;7.13;6.43;;;;;;;24.64;49.38;97908.84;4915966;29;20031;-78
2021/09/06 08:11:38;;;;;;;6.78;6.13;;;;;;;24.76;48.80;97906.31;4911906;29;20038;-79
2021/09/06 08:14:05;;;;;;;6.47;5.88;;;;;;;25.02;48.36;97913.41;4916884;29;20035;-79
2021/09/06 08:16:30;;;;;;;7.05;6.45;;;;;;;25.29;48.52;97919.41;4880543;29;20087;-79
2021/09/06 08:18:56;;;;;;;7.97;6.03;;;;;;;25.34;47.72;97924.56;4890971;29;20036;-78
2021/09/06 08:21:24;;;;;;;6.72;6.07;;;;;;;25.28;47.69;97923.19;4908070;29;20070;-78
2021/09/06 08:23:50;;;;;;;7.10;6.40;;;;;;;25.43;46.77;97922.63;4926830;29;20541;-79
2021/09/06 08:26:15;;;;;;;7.68;5.60;;;;;;;25.56;46.02;97921.56;4899178;29;20075;-80
2021/09/06 08:28:41;;;;;;;6.15;5.35;;;;;;;25.79;46.12;97934.63;4902617;29;20031;-79
2021/09/06 08:31:06;;;;;;;6.38;5.78;;;;;;;25.76;45.80;97921.94;4898739;29;20039;-79
2021/09/06 08:33:32;;;;;;;6.05;5.55;;;;;;;26.05;45.32;97926.41;4914994;29;20039;-79
2021/09/06 08:35:57;;;;;;;6.32;5.50;;;;;;;26.27;45.00;97927.16;4898435;29;20157;-79
2021/09/06 08:38:22;;;;;;;6.65;5.65;;;;;;;26.33;45.81;97926.63;4898518;29;20032;-79
2021/09/06 08:40:48;;;;;;;5.75;5.15;;;;;;;26.48;43.44;97927.88;4906846;29;20038;-79
2021/09/06 08:43:13;;;;;;;6.43;5.60;;;;;;;26.44;43.88;97927.00;4909181;29;20040;-79
2021/09/06 08:45:39;;;;;;;6.35;5.80;;;;;;;26.65;42.88;97923.50;4907148;29;20035;-79
2021/09/06 08:48:06;;;;;;;5.32;4.78;;;;;;;26.80;42.49;97930.06;4910501;29;20035;-79
2021/09/06 08:50:32;;;;;;;6.07;5.57;;;;;;;27.12;42.43;97933.00;4902784;29;20032;-78
2021/09/06 08:52:59;;;;;;;6.22;5.28;;;;;;;27.32;41.23;97937.47;4911671;29;20047;-79
2021/09/06 08:55:24;;;;;;;6.00;5.45;;;;;;;27.31;41.18;97930.53;4898216;29;20527;-79
2021/09/06 08:57:50;;;;;;;5.72;5.07;;;;;;;27.44;41.75;97934.75;4898900;29;20164;-79
2021/09/06 09:00:24;;;;;;;5.82;5.32;;;;;;;27.41;41.44;97922.06;4903130;29;20136;-79
2021/09/06 09:02:50;;;;;;;5.60;5.03;;;;;;;27.78;40.72;97931.91;4915510;29;20052;-79
2021/09/06 09:05:15;;;;;;;5.72;5.22;;;;;;;27.88;40.11;97941.34;4914795;29;20042;-79
2021/09/06 09:07:41;;;;;;;5.00;4.60;;;;;;;28.04;40.03;97939.53;4898611;29;20055;-80
2021/09/06 09:10:12;;;;;;;6.32;5.28;;;;;;;27.99;40.09;97934.44;4912766;29;20032;-79
2021/09/06 09:12:39;;;;;;;5.18;4.68;;;;;;;28.45;39.84;97936.78;4912637;29;20050;-79
2021/09/06 09:15:06;;;;;;;5.90;5.35;;;;;;;28.53;39.78;97942.00;4930130;29;20733;-79
2021/09/06 09:17:31;;;;;;;5.47;4.97;;;;;;;28.60;39.21;97937.94;4914232;29;20036;-78
2021/09/06 09:20:03;;;;;;;5.47;4.97;;;;;;;28.33;36.40;97940.31;4897967;29;20490;-78
2021/09/06 09:22:36;;;;;;;5.13;4.63;;;;;;;28.62;35.17;97933.81;4913157;29;20086;-79
2021/09/06 09:25:04;;;;;;;6.10;4.25;;;;;;;29.06;36.59;97940.97;4913756;29;20024;-79
2021/09/06 09:27:33;;;;;;;5.40;4.90;;;;;;;29.20;34.94;97943.22;4931320;29;20511;-79
2021/09/06 09:29:59;;;;;;;5.38;4.88;;;;;;;29.45;36.15;97933.81;4913760;29;20435;-78
2021/09/06 09:32:25;;;;;;;5.07;4.60;;;;;;;29.69;35.36;97935.47;4912672;29;20036;-78
2021/09/06 09:34:50;;;;;;;4.95;4.47;;;;;;;29.65;32.77;97944.59;4913658;29;20041;-79
2021/09/06 09:37:24;;;;;;;4.72;4.22;;;;;;;29.78;31.17;97945.25;4913995;29;20114;-79
2021/09/06 09:39:55;;;;;;;4.80;4.40;;;;;;;29.93;33.85;97938.28;4913538;29;20593;-79
2021/09/06 09:42:20;;;;;;;4.90;4.50;;;;;;;30.38;31.56;97934.13;4887924;29;20047;-79
2021/09/06 09:44:57;;;;;;;5.50;4.30;;;;;;;30.38;31.39;97932.25;4930308;29;20177;-78
2021/09/06 09:47:25;;;;;;;4.72;4.32;;;;;;;30.47;31.67;97937.38;4897418;29;20087;-79
2021/09/06 09:49:52;;;;;;;5.00;4.57;;;;;;;30.55;30.34;97930.97;4913259;29;20086;-79
2021/09/06 09:52:19;;;;;;;4.40;4.00;;;;;;;30.62;31.10;97938.38;4888239;29;20031;-79
2021/09/06 09:54:48;;;;;;;4.88;4.47;;;;;;;30.87;29.86;97932.66;4898010;29;20473;-79
2021/09/06 09:57:15;;;;;;;5.15;4.20;;;;;;;31.04;31.67;97940.25;4897672;29;20125;-79
2021/09/06 09:59:41;;;;;;;4.80;4.40;;;;;;;31.09;30.42;97934.56;4874943;29;20451;-79
2021/09/06 10:02:08;;;;;;;9.75;5.00;;;;;;;31.34;30.35;97936.81;4908916;29;20179;-78
2021/09/06 10:04:35;;;;;;;5.18;4.68;;;;;;;30.69;28.01;97938.53;4880804;29;20107;-78
2021/09/06 10:07:01;;;;;;;5.03;4.53;;;;;;;30.77;29.20;97934.03;4896820;29;20503;-79
2021/09/06 10:09:29;;;;;;;5.00;4.53;;;;;;;30.76;29.91;97927.88;4911403;29;20035;-79
2021/09/06 10:12:05;;;;;;;5.15;4.68;;;;;;;30.34;30.50;97939.44;4927351;29;20036;-79
2021/09/06 10:14:31;;;;;;;5.30;4.40;;;;;;;30.49;29.53;97931.66;4912639;29;20043;-79
2021/09/06 10:17:05;;;;;;;4.78;4.38;;;;;;;30.73;29.86;97933.22;4896594;29;20031;-78
2021/09/06 10:19:50;;;;;;;4.35;4.05;;;;;;;31.05;31.05;97933.75;4909352;29;20423;-78
2021/09/06 10:22:24;;;;;;;4.32;4.03;;;;;;;31.11;29.47;97934.22;4903408;29;20634;-79
2021/09/06 10:25:11;;;;;;;4.60;4.15;;;;;;;30.87;29.33;97930.75;4929773;29;20458;-77
2021/09/06 10:27:42;;;;;;;5.22;4.40;;;;;;;30.68;28.99;97928.13;4881314;29;20039;-78
2021/09/06 10:30:10;;;;;;;4.47;3.92;;;;;;;30.51;28.83;97932.06;4912064;29;20145;-78
2021/09/06 10:32:43;;;;;;;4.65;4.25;;;;;;;30.70;27.85;97932.00;4903946;29;20039;-79
2021/09/06 10:35:12;;;;;;;4.50;4.10;;;;;;;30.40;27.16;97937.25;4896863;29;20382;-78
2021/09/06 10:37:40;;;;;;;4.90;4.50;;;;;;;30.36;27.74;97926.44;4896911;29;20063;-78
2021/09/06 10:40:08;;;;;;;4.45;4.05;;;;;;;29.93;29.07;97928.31;4879385;29;20123;-78
2021/09/06 10:42:36;;;;;;;5.45;4.40;;;;;;;30.39;29.17;97916.91;4895223;29;20067;-78
2021/09/06 10:45:04;;;;;;;4.50;4.10;;;;;;;30.59;28.90;97921.09;4886869;29;20382;-78
2021/09/06 10:47:59;;;;;;;5.40;4.40;;;;;;;30.26;29.35;97921.63;4906621;29;20631;-78
2021/09/06 10:50:25;;;;;;;4.85;4.43;;;;;;;30.82;27.63;97920.28;4881177;29;20051;-78
2021/09/06 10:52:51;;;;;;;14.80;4.65;;;;;;;30.77;28.96;97915.97;4880381;29;20114;-79
2021/09/06 10:55:19;;;;;;;4.95;4.50;;;;;;;31.28;27.26;97914.06;4904497;29;20087;-78
2021/09/06 10:57:45;;;;;;;4.53;4.22;;;;;;;31.69;26.78;97909.63;4912033;29;20143;-78
2021/09/06 11:00:21;;;;;;;4.50;3.80;;;;;;;31.33;27.29;97921.84;4917807;29;20988;-78
2021/09/06 11:02:48;;;;;;;4.88;4.47;;;;;;;31.20;27.27;97918.56;4838925;29;1138329;-79
2021/09/06 11:05:18;;;;;;;4.82;4.07;;;;;;;31.52;27.55;97918.25;4917066;29;20032;-79
2021/09/06 11:07:44;;;;;;;4.70;4.30;;;;;;;31.32;25.52;97915.66;4916794;29;20133;-78
2021/09/06 11:10:11;;;;;;;4.72;4.32;;;;;;;31.54;26.92;97908.66;4900539;29;20574;-77
2021/09/06 11:12:39;;;;;;;4.75;4.38;;;;;;;31.90;25.78;97911.78;4915553;29;20587;-78
2021/09/06 11:15:05;;;;;;;4.50;4.18;;;;;;;32.17;25.08;97909.03;4932164;29;20406;-78
2021/09/06 11:17:31;;;;;;;4.32;4.03;;;;;;;32.71;27.23;97911.44;4931875;29;20043;-78
2021/09/06 11:19:57;;;;;;;5.20;4.70;;;;;;;32.47;25.77;97902.75;4916688;29;20040;-78
2021/09/06 11:22:26;;;;;;;4.32;4.03;;;;;;;32.46;24.27;97904.69;4887445;29;20044;-80
2021/09/06 11:24:57;;;;;;;4.90;4.40;;;;;;;32.20;25.59;97908.28;4898583;29;20175;-78
2021/09/06 11:27:24;;;;;;;4.68;4.28;;;;;;;31.62;24.38;97895.28;4896963;29;20423;-78